sensor_id;sensor_type;location;lat;lon;timestamp;P1;durP1;ratioP1;P2;durP2;ratioP2
26620;SDS011;14253;44.840;10.444;2023-03-14T00:00:37;26.23;;;15.95;;
26620;SDS011;14253;44.840;10.444;2023-03-14T00:03:03;28.42;;;15.80;;
26620;SDS011;14253;44.840;10.444;2023-03-14T00:05:29;23.80;;;14.23;;
26620;SDS011;14253;44.840;10.444;2023-03-14T00:07:55;24.88;;;15.77;;
26620;SDS011;14253;44.840;10.444;2023-03-14T00:10:21;25.63;;;14.55;;
26620;SDS011;14253;44.840;10.444;2023-03-14T00:12:47;28.55;;;15.95;;
26620;SDS011;14253;44.840;10.444;2023-03-14T00:15:13;24.25;;;14.80;;
26620;SDS011;14253;44.840;10.444;2023-03-14T00:17:40;23.35;;;15.10;;
26620;SDS011;14253;44.840;10.444;2023-03-14T00:20:08;28.92;;;15.32;;
26620;SDS011;14253;44.840;10.444;2023-03-14T00:22:36;24.08;;;15.30;;
26620;SDS011;14253;44.840;10.444;2023-03-14T00:25:04;24.10;;;15.52;;
26620;SDS011;14253;44.840;10.444;2023-03-14T00:27:31;24.38;;;15.63;;
26620;SDS011;14253;44.840;10.444;2023-03-14T00:29:58;33.22;;;15.95;;
26620;SDS011;14253;44.840;10.444;2023-03-14T00:32:24;30.27;;;16.45;;
26620;SDS011;14253;44.840;10.444;2023-03-14T00:34:50;32.35;;;16.38;;
26620;SDS011;14253;44.840;10.444;2023-03-14T00:37:16;27.38;;;15.80;;
26620;SDS011;14253;44.840;10.444;2023-03-14T00:39:42;30.77;;;17.00;;
26620;SDS011;14253;44.840;10.444;2023-03-14T00:42:08;25.30;;;14.98;;
26620;SDS011;14253;44.840;10.444;2023-03-14T00:44:34;22.63;;;15.48;;
26620;SDS011;14253;44.840;10.444;2023-03-14T00:47:00;25.20;;;15.75;;
26620;SDS011;14253;44.840;10.444;2023-03-14T00:49:26;25.27;;;15.52;;
26620;SDS011;14253;44.840;10.444;2023-03-14T00:51:52;24.90;;;15.57;;
26620;SDS011;14253;44.840;10.444;2023-03-14T00:54:18;25.92;;;14.57;;
26620;SDS011;14253;44.840;10.444;2023-03-14T00:56:44;28.05;;;15.93;;
26620;SDS011;14253;44.840;10.444;2023-03-14T00:59:11;27.13;;;15.48;;
26620;SDS011;14253;44.840;10.444;2023-03-14T01:01:37;21.38;;;14.50;;
26620;SDS011;14253;44.840;10.444;2023-03-14T01:04:05;26.98;;;14.77;;
26620;SDS011;14253;44.840;10.444;2023-03-14T01:06:31;23.73;;;14.75;;
26620;SDS011;14253;44.840;10.444;2023-03-14T01:08:57;23.98;;;15.18;;
26620;SDS011;14253;44.840;10.444;2023-03-14T01:11:34;26.88;;;14.30;;
26620;SDS011;14253;44.840;10.444;2023-03-14T01:14:01;19.17;;;14.05;;
26620;SDS011;14253;44.840;10.444;2023-03-14T01:16:31;22.83;;;14.30;;
26620;SDS011;14253;44.840;10.444;2023-03-14T01:19:00;23.30;;;14.40;;
26620;SDS011;14253;44.840;10.444;2023-03-14T01:21:30;24.08;;;14.75;;
26620;SDS011;14253;44.840;10.444;2023-03-14T01:23:59;26.67;;;14.02;;
26620;SDS011;14253;44.840;10.444;2023-03-14T01:26:26;24.67;;;14.13;;
26620;SDS011;14253;44.840;10.444;2023-03-14T01:28:55;23.42;;;13.07;;
26620;SDS011;14253;44.840;10.444;2023-03-14T01:31:22;25.40;;;14.98;;
26620;SDS011;14253;44.840;10.444;2023-03-14T01:33:49;21.33;;;13.38;;
26620;SDS011;14253;44.840;10.444;2023-03-14T01:36:15;23.70;;;13.63;;
26620;SDS011;14253;44.840;10.444;2023-03-14T01:38:43;19.42;;;13.73;;
26620;SDS011;14253;44.840;10.444;2023-03-14T01:41:14;19.60;;;13.30;;
26620;SDS011;14253;44.840;10.444;2023-03-14T01:43:43;23.55;;;13.68;;
26620;SDS011;14253;44.840;10.444;2023-03-14T01:46:20;22.10;;;13.55;;
26620;SDS011;14253;44.840;10.444;2023-03-14T01:51:27;19.10;;;13.27;;
26620;SDS011;14253;44.840;10.444;2023-03-14T01:54:43;19.15;;;13.88;;
26620;SDS011;14253;44.840;10.444;2023-03-14T01:56:56;21.75;;;13.15;;
26620;SDS011;14253;44.840;10.444;2023-03-14T01:59:29;21.27;;;13.38;;
26620;SDS011;14253;44.840;10.444;2023-03-14T02:01:56;19.13;;;12.65;;
26620;SDS011;14253;44.840;10.444;2023-03-14T02:04:24;18.17;;;13.18;;
26620;SDS011;14253;44.840;10.444;2023-03-14T02:09:49;23.80;;;15.40;;
26620;SDS011;14253;44.840;10.444;2023-03-14T02:12:22;25.38;;;16.58;;
26620;SDS011;14253;44.840;10.444;2023-03-14T02:15:06;24.15;;;16.83;;
26620;SDS011;14253;44.840;10.444;2023-03-14T02:20:53;30.23;;;19.30;;
26620;SDS011;14253;44.840;10.444;2023-03-14T02:23:27;27.17;;;19.35;;
26620;SDS011;14253;44.840;10.444;2023-03-14T02:28:47;27.20;;;19.98;;
26620;SDS011;14253;44.840;10.444;2023-03-14T02:31:15;30.73;;;21.45;;
26620;SDS011;14253;44.840;10.444;2023-03-14T02:33:41;30.25;;;21.23;;
26620;SDS011;14253;44.840;10.444;2023-03-14T02:36:09;33.92;;;22.83;;
26620;SDS011;14253;44.840;10.444;2023-03-14T02:41:38;33.17;;;22.20;;
26620;SDS011;14253;44.840;10.444;2023-03-14T02:44:06;32.70;;;22.83;;
26620;SDS011;14253;44.840;10.444;2023-03-14T02:46:33;39.53;;;23.17;;
26620;SDS011;14253;44.840;10.444;2023-03-14T02:49:01;38.33;;;22.50;;
26620;SDS011;14253;44.840;10.444;2023-03-14T02:51:33;33.20;;;21.48;;
26620;SDS011;14253;44.840;10.444;2023-03-14T02:54:00;38.85;;;23.23;;
26620;SDS011;14253;44.840;10.444;2023-03-14T02:56:26;35.70;;;22.67;;
26620;SDS011;14253;44.840;10.444;2023-03-14T02:58:53;36.20;;;24.02;;
26620;SDS011;14253;44.840;10.444;2023-03-14T03:01:35;37.33;;;23.75;;
26620;SDS011;14253;44.840;10.444;2023-03-14T03:04:01;35.08;;;23.55;;
26620;SDS011;14253;44.840;10.444;2023-03-14T03:06:27;38.15;;;24.15;;
26620;SDS011;14253;44.840;10.444;2023-03-14T03:08:53;34.40;;;22.40;;
26620;SDS011;14253;44.840;10.444;2023-03-14T03:11:19;32.33;;;22.65;;
26620;SDS011;14253;44.840;10.444;2023-03-14T03:13:46;32.13;;;23.10;;
26620;SDS011;14253;44.840;10.444;2023-03-14T03:16:13;33.05;;;23.63;;
26620;SDS011;14253;44.840;10.444;2023-03-14T03:18:40;37.10;;;24.05;;
26620;SDS011;14253;44.840;10.444;2023-03-14T03:21:06;36.25;;;24.42;;
26620;SDS011;14253;44.840;10.444;2023-03-14T03:23:34;37.17;;;22.85;;
26620;SDS011;14253;44.840;10.444;2023-03-14T03:26:00;36.13;;;23.83;;
26620;SDS011;14253;44.840;10.444;2023-03-14T03:28:27;33.40;;;23.48;;
26620;SDS011;14253;44.840;10.444;2023-03-14T03:30:55;36.60;;;23.52;;
26620;SDS011;14253;44.840;10.444;2023-03-14T03:33:21;40.88;;;25.33;;
26620;SDS011;14253;44.840;10.444;2023-03-14T03:35:49;38.85;;;25.13;;
26620;SDS011;14253;44.840;10.444;2023-03-14T03:38:25;37.28;;;24.85;;
26620;SDS011;14253;44.840;10.444;2023-03-14T03:40:53;43.85;;;25.38;;
26620;SDS011;14253;44.840;10.444;2023-03-14T03:43:20;46.65;;;27.15;;
26620;SDS011;14253;44.840;10.444;2023-03-14T03:45:48;39.50;;;26.05;;
26620;SDS011;14253;44.840;10.444;2023-03-14T03:48:14;43.95;;;28.33;;
26620;SDS011;14253;44.840;10.444;2023-03-14T03:50:43;41.90;;;29.30;;
26620;SDS011;14253;44.840;10.444;2023-03-14T03:53:11;44.55;;;29.42;;
26620;SDS011;14253;44.840;10.444;2023-03-14T03:55:40;55.88;;;28.88;;
26620;SDS011;14253;44.840;10.444;2023-03-14T03:58:08;46.42;;;29.13;;
26620;SDS011;14253;44.840;10.444;2023-03-14T04:00:34;47.00;;;30.05;;
26620;SDS011;14253;44.840;10.444;2023-03-14T04:03:00;49.58;;;31.02;;
26620;SDS011;14253;44.840;10.444;2023-03-14T04:05:26;49.05;;;32.00;;
26620;SDS011;14253;44.840;10.444;2023-03-14T04:07:58;51.75;;;33.13;;
26620;SDS011;14253;44.840;10.444;2023-03-14T04:10:26;53.05;;;33.42;;
26620;SDS011;14253;44.840;10.444;2023-03-14T04:13:15;51.92;;;33.50;;
26620;SDS011;14253;44.840;10.444;2023-03-14T04:15:46;53.10;;;32.05;;
26620;SDS011;14253;44.840;10.444;2023-03-14T04:18:25;54.60;;;33.80;;
26620;SDS011;14253;44.840;10.444;2023-03-14T04:20:51;56.78;;;34.88;;
26620;SDS011;14253;44.840;10.444;2023-03-14T04:23:20;53.50;;;35.22;;
26620;SDS011;14253;44.840;10.444;2023-03-14T04:25:52;56.00;;;34.95;;
26620;SDS011;14253;44.840;10.444;2023-03-14T04:28:20;61.58;;;36.20;;
26620;SDS011;14253;44.840;10.444;2023-03-14T04:30:46;55.47;;;35.50;;
26620;SDS011;14253;44.840;10.444;2023-03-14T04:33:18;54.25;;;36.03;;
26620;SDS011;14253;44.840;10.444;2023-03-14T04:35:52;52.28;;;34.28;;
26620;SDS011;14253;44.840;10.444;2023-03-14T04:38:19;53.33;;;33.13;;
26620;SDS011;14253;44.840;10.444;2023-03-14T04:40:47;49.45;;;33.28;;
26620;SDS011;14253;44.840;10.444;2023-03-14T04:43:14;51.10;;;32.30;;
26620;SDS011;14253;44.840;10.444;2023-03-14T04:45:46;50.05;;;33.30;;
26620;SDS011;14253;44.840;10.444;2023-03-14T04:48:13;51.92;;;33.72;;
26620;SDS011;14253;44.840;10.444;2023-03-14T04:50:39;45.15;;;33.75;;
26620;SDS011;14253;44.840;10.444;2023-03-14T04:53:06;51.08;;;31.88;;
26620;SDS011;14253;44.840;10.444;2023-03-14T04:55:32;62.70;;;34.90;;
26620;SDS011;14253;44.840;10.444;2023-03-14T04:58:00;47.83;;;32.92;;
26620;SDS011;14253;44.840;10.444;2023-03-14T05:00:26;48.22;;;31.88;;
26620;SDS011;14253;44.840;10.444;2023-03-14T05:03:15;51.10;;;32.65;;
26620;SDS011;14253;44.840;10.444;2023-03-14T05:05:55;45.78;;;30.80;;
26620;SDS011;14253;44.840;10.444;2023-03-14T05:08:38;46.67;;;32.72;;
26620;SDS011;14253;44.840;10.444;2023-03-14T05:11:36;49.15;;;32.53;;
26620;SDS011;14253;44.840;10.444;2023-03-14T05:14:14;51.15;;;31.55;;
26620;SDS011;14253;44.840;10.444;2023-03-14T05:16:56;54.50;;;33.85;;
26620;SDS011;14253;44.840;10.444;2023-03-14T05:19:46;51.63;;;33.33;;
26620;SDS011;14253;44.840;10.444;2023-03-14T05:22:44;47.58;;;34.22;;
26620;SDS011;14253;44.840;10.444;2023-03-14T05:25:23;54.35;;;34.25;;
26620;SDS011;14253;44.840;10.444;2023-03-14T05:28:10;48.97;;;33.15;;
26620;SDS011;14253;44.840;10.444;2023-03-14T05:30:48;54.30;;;34.58;;
26620;SDS011;14253;44.840;10.444;2023-03-14T05:33:52;53.25;;;32.70;;
26620;SDS011;14253;44.840;10.444;2023-03-14T05:36:31;44.25;;;30.95;;
26620;SDS011;14253;44.840;10.444;2023-03-14T05:39:00;54.53;;;32.10;;
26620;SDS011;14253;44.840;10.444;2023-03-14T05:41:44;47.90;;;30.88;;
26620;SDS011;14253;44.840;10.444;2023-03-14T05:44:30;48.63;;;30.80;;
26620;SDS011;14253;44.840;10.444;2023-03-14T05:46:59;55.80;;;32.45;;
26620;SDS011;14253;44.840;10.444;2023-03-14T05:49:34;47.53;;;31.38;;
26620;SDS011;14253;44.840;10.444;2023-03-14T05:52:26;51.28;;;31.38;;
26620;SDS011;14253;44.840;10.444;2023-03-14T05:55:14;43.72;;;30.27;;
26620;SDS011;14253;44.840;10.444;2023-03-14T05:57:59;46.80;;;31.60;;
26620;SDS011;14253;44.840;10.444;2023-03-14T06:00:47;48.83;;;30.63;;
26620;SDS011;14253;44.840;10.444;2023-03-14T06:03:26;52.45;;;29.98;;
26620;SDS011;14253;44.840;10.444;2023-03-14T06:05:52;47.33;;;30.13;;
26620;SDS011;14253;44.840;10.444;2023-03-14T06:08:21;43.72;;;30.13;;
26620;SDS011;14253;44.840;10.444;2023-03-14T06:10:47;45.92;;;29.52;;
26620;SDS011;14253;44.840;10.444;2023-03-14T06:13:13;53.88;;;29.73;;
26620;SDS011;14253;44.840;10.444;2023-03-14T06:15:41;48.08;;;29.67;;
26620;SDS011;14253;44.840;10.444;2023-03-14T06:18:08;44.35;;;28.77;;
26620;SDS011;14253;44.840;10.444;2023-03-14T06:20:38;44.08;;;26.88;;
26620;SDS011;14253;44.840;10.444;2023-03-14T06:23:08;42.78;;;27.98;;
26620;SDS011;14253;44.840;10.444;2023-03-14T06:25:35;45.95;;;29.77;;
26620;SDS011;14253;44.840;10.444;2023-03-14T06:28:02;51.42;;;29.55;;
26620;SDS011;14253;44.840;10.444;2023-03-14T06:30:30;44.17;;;28.33;;
26620;SDS011;14253;44.840;10.444;2023-03-14T06:32:56;46.63;;;29.30;;
26620;SDS011;14253;44.840;10.444;2023-03-14T06:35:22;44.78;;;28.95;;
26620;SDS011;14253;44.840;10.444;2023-03-14T06:37:48;44.55;;;28.50;;
26620;SDS011;14253;44.840;10.444;2023-03-14T06:40:15;44.47;;;28.10;;
26620;SDS011;14253;44.840;10.444;2023-03-14T06:42:49;43.15;;;26.85;;
26620;SDS011;14253;44.840;10.444;2023-03-14T06:45:21;46.33;;;27.42;;
26620;SDS011;14253;44.840;10.444;2023-03-14T06:47:47;40.28;;;25.02;;
26620;SDS011;14253;44.840;10.444;2023-03-14T06:50:15;39.50;;;25.75;;
26620;SDS011;14253;44.840;10.444;2023-03-14T06:52:42;43.20;;;27.35;;
26620;SDS011;14253;44.840;10.444;2023-03-14T06:55:15;43.33;;;26.05;;
26620;SDS011;14253;44.840;10.444;2023-03-14T06:57:42;37.75;;;26.30;;
26620;SDS011;14253;44.840;10.444;2023-03-14T07:00:10;40.55;;;25.15;;
26620;SDS011;14253;44.840;10.444;2023-03-14T07:02:38;39.33;;;24.83;;
26620;SDS011;14253;44.840;10.444;2023-03-14T07:05:05;37.17;;;22.95;;
26620;SDS011;14253;44.840;10.444;2023-03-14T07:07:33;37.00;;;23.08;;
26620;SDS011;14253;44.840;10.444;2023-03-14T07:09:59;37.65;;;23.52;;
26620;SDS011;14253;44.840;10.444;2023-03-14T07:12:27;36.40;;;22.58;;
26620;SDS011;14253;44.840;10.444;2023-03-14T07:14:53;40.50;;;23.83;;
26620;SDS011;14253;44.840;10.444;2023-03-14T07:17:20;41.03;;;24.55;;
26620;SDS011;14253;44.840;10.444;2023-03-14T07:19:46;38.75;;;24.73;;
26620;SDS011;14253;44.840;10.444;2023-03-14T07:22:13;45.85;;;24.70;;
26620;SDS011;14253;44.840;10.444;2023-03-14T07:24:39;33.70;;;23.38;;
26620;SDS011;14253;44.840;10.444;2023-03-14T07:27:05;36.47;;;24.02;;
26620;SDS011;14253;44.840;10.444;2023-03-14T07:29:31;36.50;;;23.65;;
26620;SDS011;14253;44.840;10.444;2023-03-14T07:32:00;40.47;;;24.67;;
26620;SDS011;14253;44.840;10.444;2023-03-14T07:34:27;40.78;;;23.50;;
26620;SDS011;14253;44.840;10.444;2023-03-14T07:36:54;33.70;;;22.95;;
26620;SDS011;14253;44.840;10.444;2023-03-14T07:39:20;35.05;;;25.15;;
26620;SDS011;14253;44.840;10.444;2023-03-14T07:42:00;37.03;;;24.50;;
26620;SDS011;14253;44.840;10.444;2023-03-14T07:44:32;37.63;;;24.17;;
26620;SDS011;14253;44.840;10.444;2023-03-14T07:46:58;35.60;;;23.23;;
26620;SDS011;14253;44.840;10.444;2023-03-14T07:49:24;36.97;;;23.33;;
26620;SDS011;14253;44.840;10.444;2023-03-14T07:51:50;35.33;;;21.40;;
26620;SDS011;14253;44.840;10.444;2023-03-14T07:54:16;30.30;;;19.55;;
26620;SDS011;14253;44.840;10.444;2023-03-14T07:56:42;27.67;;;17.67;;
26620;SDS011;14253;44.840;10.444;2023-03-14T07:59:08;28.38;;;17.38;;
26620;SDS011;14253;44.840;10.444;2023-03-14T08:01:34;25.23;;;16.83;;
26620;SDS011;14253;44.840;10.444;2023-03-14T08:04:00;24.17;;;15.90;;
26620;SDS011;14253;44.840;10.444;2023-03-14T08:06:26;23.23;;;16.63;;
26620;SDS011;14253;44.840;10.444;2023-03-14T08:08:52;23.40;;;16.48;;
26620;SDS011;14253;44.840;10.444;2023-03-14T08:11:18;22.63;;;15.43;;
26620;SDS011;14253;44.840;10.444;2023-03-14T08:13:44;23.10;;;15.27;;
26620;SDS011;14253;44.840;10.444;2023-03-14T08:16:18;23.10;;;14.45;;
26620;SDS011;14253;44.840;10.444;2023-03-14T08:18:44;23.33;;;14.77;;
26620;SDS011;14253;44.840;10.444;2023-03-14T08:21:11;22.30;;;14.48;;
26620;SDS011;14253;44.840;10.444;2023-03-14T08:23:38;26.70;;;14.93;;
26620;SDS011;14253;44.840;10.444;2023-03-14T08:26:04;22.25;;;13.95;;
26620;SDS011;14253;44.840;10.444;2023-03-14T08:28:30;22.38;;;14.70;;
26620;SDS011;14253;44.840;10.444;2023-03-14T08:30:58;25.52;;;14.25;;
26620;SDS011;14253;44.840;10.444;2023-03-14T08:33:26;21.58;;;14.02;;
26620;SDS011;14253;44.840;10.444;2023-03-14T08:35:53;18.05;;;12.38;;
26620;SDS011;14253;44.840;10.444;2023-03-14T08:38:20;16.02;;;12.25;;
26620;SDS011;14253;44.840;10.444;2023-03-14T08:40:46;19.48;;;12.10;;
26620;SDS011;14253;44.840;10.444;2023-03-14T08:43:12;16.67;;;11.13;;
26620;SDS011;14253;44.840;10.444;2023-03-14T08:45:38;18.98;;;11.45;;
26620;SDS011;14253;44.840;10.444;2023-03-14T08:48:04;17.30;;;11.85;;
26620;SDS011;14253;44.840;10.444;2023-03-14T08:50:30;18.63;;;11.38;;
26620;SDS011;14253;44.840;10.444;2023-03-14T08:52:56;16.67;;;11.40;;
26620;SDS011;14253;44.840;10.444;2023-03-14T08:55:26;16.38;;;11.43;;
26620;SDS011;14253;44.840;10.444;2023-03-14T08:57:52;17.38;;;11.15;;
26620;SDS011;14253;44.840;10.444;2023-03-14T09:00:19;17.25;;;11.65;;
26620;SDS011;14253;44.840;10.444;2023-03-14T09:02:45;15.50;;;11.00;;
26620;SDS011;14253;44.840;10.444;2023-03-14T09:05:11;16.83;;;11.88;;
26620;SDS011;14253;44.840;10.444;2023-03-14T09:07:38;16.17;;;11.20;;
26620;SDS011;14253;44.840;10.444;2023-03-14T09:10:05;19.45;;;13.07;;
26620;SDS011;14253;44.840;10.444;2023-03-14T09:12:32;19.27;;;11.63;;
26620;SDS011;14253;44.840;10.444;2023-03-14T09:14:59;15.55;;;11.55;;
26620;SDS011;14253;44.840;10.444;2023-03-14T09:17:25;20.02;;;11.00;;
26620;SDS011;14253;44.840;10.444;2023-03-14T09:19:51;14.77;;;10.05;;
26620;SDS011;14253;44.840;10.444;2023-03-14T09:22:17;23.63;;;11.93;;
26620;SDS011;14253;44.840;10.444;2023-03-14T09:24:43;21.30;;;10.88;;
26620;SDS011;14253;44.840;10.444;2023-03-14T09:27:09;19.40;;;12.45;;
26620;SDS011;14253;44.840;10.444;2023-03-14T09:29:37;18.95;;;12.80;;
26620;SDS011;14253;44.840;10.444;2023-03-14T09:32:03;19.52;;;11.50;;
26620;SDS011;14253;44.840;10.444;2023-03-14T09:34:29;21.23;;;10.02;;
26620;SDS011;14253;44.840;10.444;2023-03-14T09:36:55;17.27;;;10.30;;
26620;SDS011;14253;44.840;10.444;2023-03-14T09:39:22;17.83;;;8.77;;
26620;SDS011;14253;44.840;10.444;2023-03-14T09:41:48;18.30;;;9.25;;
26620;SDS011;14253;44.840;10.444;2023-03-14T09:47:04;16.25;;;9.80;;
26620;SDS011;14253;44.840;10.444;2023-03-14T09:49:34;18.80;;;10.63;;
26620;SDS011;14253;44.840;10.444;2023-03-14T09:52:05;17.67;;;10.43;;
26620;SDS011;14253;44.840;10.444;2023-03-14T09:57:23;20.20;;;11.13;;
26620;SDS011;14253;44.840;10.444;2023-03-14T09:59:52;18.35;;;10.20;;
26620;SDS011;14253;44.840;10.444;2023-03-14T10:02:23;17.10;;;9.77;;
26620;SDS011;14253;44.840;10.444;2023-03-14T10:04:51;18.38;;;10.52;;
26620;SDS011;14253;44.840;10.444;2023-03-14T10:07:21;20.80;;;12.40;;
26620;SDS011;14253;44.840;10.444;2023-03-14T10:09:57;15.10;;;10.65;;
26620;SDS011;14253;44.840;10.444;2023-03-14T10:12:30;19.83;;;11.90;;
26620;SDS011;14253;44.840;10.444;2023-03-14T10:15:06;18.45;;;11.45;;
26620;SDS011;14253;44.840;10.444;2023-03-14T10:17:42;19.75;;;12.65;;
26620;SDS011;14253;44.840;10.444;2023-03-14T10:20:27;18.67;;;12.90;;
26620;SDS011;14253;44.840;10.444;2023-03-14T10:25:37;22.08;;;12.48;;
26620;SDS011;14253;44.840;10.444;2023-03-14T10:28:29;22.27;;;14.23;;
26620;SDS011;14253;44.840;10.444;2023-03-14T10:31:03;21.08;;;13.25;;
26620;SDS011;14253;44.840;10.444;2023-03-14T10:33:30;20.02;;;13.45;;
26620;SDS011;14253;44.840;10.444;2023-03-14T10:35:59;21.90;;;13.20;;
26620;SDS011;14253;44.840;10.444;2023-03-14T10:38:32;25.05;;;13.50;;
26620;SDS011;14253;44.840;10.444;2023-03-14T10:41:00;23.35;;;13.88;;
26620;SDS011;14253;44.840;10.444;2023-03-14T10:43:27;21.58;;;13.05;;
26620;SDS011;14253;44.840;10.444;2023-03-14T10:46:01;21.48;;;13.65;;
26620;SDS011;14253;44.840;10.444;2023-03-14T10:48:33;20.58;;;12.95;;
26620;SDS011;14253;44.840;10.444;2023-03-14T10:56:23;18.33;;;11.32;;
26620;SDS011;14253;44.840;10.444;2023-03-14T10:58:51;20.50;;;10.88;;
26620;SDS011;14253;44.840;10.444;2023-03-14T11:07:03;19.30;;;11.88;;
26620;SDS011;14253;44.840;10.444;2023-03-14T11:12:38;17.48;;;11.38;;
26620;SDS011;14253;44.840;10.444;2023-03-14T11:15:27;20.20;;;12.35;;
26620;SDS011;14253;44.840;10.444;2023-03-14T11:18:17;22.38;;;12.10;;
26620;SDS011;14253;44.840;10.444;2023-03-14T11:29:20;16.53;;;12.77;;
26620;SDS011;14253;44.840;10.444;2023-03-14T11:31:57;17.83;;;10.55;;
26620;SDS011;14253;44.840;10.444;2023-03-14T11:34:35;20.80;;;12.48;;
26620;SDS011;14253;44.840;10.444;2023-03-14T11:37:15;21.00;;;12.48;;
26620;SDS011;14253;44.840;10.444;2023-03-14T11:42:37;19.20;;;12.63;;
26620;SDS011;14253;44.840;10.444;2023-03-14T11:45:18;16.45;;;11.05;;
26620;SDS011;14253;44.840;10.444;2023-03-14T11:48:00;17.58;;;11.18;;
26620;SDS011;14253;44.840;10.444;2023-03-14T11:50:44;19.60;;;11.55;;
26620;SDS011;14253;44.840;10.444;2023-03-14T11:55:47;17.75;;;10.10;;
26620;SDS011;14253;44.840;10.444;2023-03-14T11:58:27;15.02;;;9.77;;
26620;SDS011;14253;44.840;10.444;2023-03-14T12:00:57;208.95;;;102.43;;
26620;SDS011;14253;44.840;10.444;2023-03-14T12:06:45;14.50;;;8.80;;
26620;SDS011;14253;44.840;10.444;2023-03-14T12:09:16;12.68;;;7.47;;
26620;SDS011;14253;44.840;10.444;2023-03-14T12:11:54;15.38;;;7.93;;
26620;SDS011;14253;44.840;10.444;2023-03-14T12:14:25;13.68;;;8.63;;
26620;SDS011;14253;44.840;10.444;2023-03-14T12:16:54;14.32;;;8.80;;
26620;SDS011;14253;44.840;10.444;2023-03-14T12:19:32;12.77;;;8.63;;
26620;SDS011;14253;44.840;10.444;2023-03-14T12:24:52;12.17;;;8.93;;
26620;SDS011;14253;44.840;10.444;2023-03-14T12:30:39;16.20;;;8.82;;
26620;SDS011;14253;44.840;10.444;2023-03-14T12:35:41;16.08;;;9.73;;
26620;SDS011;14253;44.840;10.444;2023-03-14T12:43:31;18.90;;;9.23;;
26620;SDS011;14253;44.840;10.444;2023-03-14T12:46:09;19.10;;;9.52;;
26620;SDS011;14253;44.840;10.444;2023-03-14T12:48:40;18.08;;;10.27;;
26620;SDS011;14253;44.840;10.444;2023-03-14T12:51:13;14.23;;;8.93;;
26620;SDS011;14253;44.840;10.444;2023-03-14T12:59:39;12.27;;;7.82;;
26620;SDS011;14253;44.840;10.444;2023-03-14T13:05:10;14.73;;;8.02;;
26620;SDS011;14253;44.840;10.444;2023-03-14T13:10:24;11.00;;;7.95;;
26620;SDS011;14253;44.840;10.444;2023-03-14T13:15:40;12.25;;;7.18;;
26620;SDS011;14253;44.840;10.444;2023-03-14T13:18:13;12.60;;;7.18;;
26620;SDS011;14253;44.840;10.444;2023-03-14T13:20:53;10.98;;;6.57;;
26620;SDS011;14253;44.840;10.444;2023-03-14T13:23:23;10.90;;;7.32;;
26620;SDS011;14253;44.840;10.444;2023-03-14T13:25:53;11.35;;;7.65;;
26620;SDS011;14253;44.840;10.444;2023-03-14T13:28:22;10.55;;;7.28;;
26620;SDS011;14253;44.840;10.444;2023-03-14T13:30:58;13.52;;;7.95;;
26620;SDS011;14253;44.840;10.444;2023-03-14T13:33:27;11.68;;;7.43;;
26620;SDS011;14253;44.840;10.444;2023-03-14T13:35:57;11.38;;;7.55;;
26620;SDS011;14253;44.840;10.444;2023-03-14T13:38:35;9.65;;;6.93;;
26620;SDS011;14253;44.840;10.444;2023-03-14T13:41:10;13.73;;;7.72;;
26620;SDS011;14253;44.840;10.444;2023-03-14T13:43:47;12.02;;;8.18;;
26620;SDS011;14253;44.840;10.444;2023-03-14T13:46:15;11.85;;;7.78;;
26620;SDS011;14253;44.840;10.444;2023-03-14T13:48:44;11.50;;;8.52;;
26620;SDS011;14253;44.840;10.444;2023-03-14T13:51:20;14.02;;;9.10;;
26620;SDS011;14253;44.840;10.444;2023-03-14T13:53:55;13.90;;;9.25;;
26620;SDS011;14253;44.840;10.444;2023-03-14T13:56:22;12.00;;;8.38;;
26620;SDS011;14253;44.840;10.444;2023-03-14T13:58:54;13.38;;;8.13;;
26620;SDS011;14253;44.840;10.444;2023-03-14T14:01:24;12.40;;;8.00;;
26620;SDS011;14253;44.840;10.444;2023-03-14T14:04:07;12.35;;;8.05;;
26620;SDS011;14253;44.840;10.444;2023-03-14T14:07:00;10.38;;;6.70;;
26620;SDS011;14253;44.840;10.444;2023-03-14T14:09:39;9.45;;;7.50;;
26620;SDS011;14253;44.840;10.444;2023-03-14T14:18:07;11.00;;;6.72;;
26620;SDS011;14253;44.840;10.444;2023-03-14T14:20:38;10.90;;;5.82;;
26620;SDS011;14253;44.840;10.444;2023-03-14T14:23:16;9.82;;;6.47;;
26620;SDS011;14253;44.840;10.444;2023-03-14T14:25:56;9.60;;;6.93;;
26620;SDS011;14253;44.840;10.444;2023-03-14T14:28:24;10.93;;;6.57;;
26620;SDS011;14253;44.840;10.444;2023-03-14T14:31:04;10.23;;;7.47;;
26620;SDS011;14253;44.840;10.444;2023-03-14T14:33:38;10.52;;;6.40;;
26620;SDS011;14253;44.840;10.444;2023-03-14T14:36:16;8.48;;;6.40;;
26620;SDS011;14253;44.840;10.444;2023-03-14T14:38:57;7.95;;;6.43;;
26620;SDS011;14253;44.840;10.444;2023-03-14T14:41:32;7.38;;;6.13;;
26620;SDS011;14253;44.840;10.444;2023-03-14T14:44:00;9.05;;;6.55;;
26620;SDS011;14253;44.840;10.444;2023-03-14T14:46:30;10.82;;;6.80;;
26620;SDS011;14253;44.840;10.444;2023-03-14T14:49:02;11.00;;;6.72;;
26620;SDS011;14253;44.840;10.444;2023-03-14T14:51:43;12.27;;;6.63;;
26620;SDS011;14253;44.840;10.444;2023-03-14T14:54:14;8.75;;;6.25;;
26620;SDS011;14253;44.840;10.444;2023-03-14T14:56:45;12.38;;;6.13;;
26620;SDS011;14253;44.840;10.444;2023-03-14T14:59:19;9.50;;;6.35;;
26620;SDS011;14253;44.840;10.444;2023-03-14T15:01:48;11.23;;;6.63;;
26620;SDS011;14253;44.840;10.444;2023-03-14T15:04:18;11.00;;;6.90;;
26620;SDS011;14253;44.840;10.444;2023-03-14T15:06:45;11.10;;;7.50;;
26620;SDS011;14253;44.840;10.444;2023-03-14T15:09:14;9.02;;;6.80;;
26620;SDS011;14253;44.840;10.444;2023-03-14T15:11:42;9.57;;;6.85;;
26620;SDS011;14253;44.840;10.444;2023-03-14T15:14:08;9.15;;;6.78;;
26620;SDS011;14253;44.840;10.444;2023-03-14T15:16:35;9.77;;;6.55;;
26620;SDS011;14253;44.840;10.444;2023-03-14T15:19:08;61.88;;;36.70;;
26620;SDS011;14253;44.840;10.444;2023-03-14T15:24:20;9.55;;;5.80;;
26620;SDS011;14253;44.840;10.444;2023-03-14T15:26:54;7.60;;;5.80;;
26620;SDS011;14253;44.840;10.444;2023-03-14T15:29:21;12.20;;;6.03;;
26620;SDS011;14253;44.840;10.444;2023-03-14T15:31:47;10.98;;;6.10;;
26620;SDS011;14253;44.840;10.444;2023-03-14T15:34:14;8.90;;;5.45;;
26620;SDS011;14253;44.840;10.444;2023-03-14T15:36:41;8.55;;;6.10;;
26620;SDS011;14253;44.840;10.444;2023-03-14T15:39:09;9.07;;;5.68;;
26620;SDS011;14253;44.840;10.444;2023-03-14T15:41:36;10.27;;;6.57;;
26620;SDS011;14253;44.840;10.444;2023-03-14T15:44:02;8.73;;;6.78;;
26620;SDS011;14253;44.840;10.444;2023-03-14T15:46:29;18.05;;;6.63;;
26620;SDS011;14253;44.840;10.444;2023-03-14T15:48:54;8.57;;;6.50;;
26620;SDS011;14253;44.840;10.444;2023-03-14T15:51:20;10.68;;;6.43;;
26620;SDS011;14253;44.840;10.444;2023-03-14T15:53:46;10.05;;;6.65;;
26620;SDS011;14253;44.840;10.444;2023-03-14T15:56:14;8.70;;;6.35;;
26620;SDS011;14253;44.840;10.444;2023-03-14T15:58:42;10.48;;;6.80;;
26620;SDS011;14253;44.840;10.444;2023-03-14T16:01:11;9.27;;;6.43;;
26620;SDS011;14253;44.840;10.444;2023-03-14T16:03:38;9.27;;;6.55;;